Time;durP1;ratioP1;P1;durP2;ratioP2;P2;SDS_P1;SDS_P2;PMS_P1;PMS_P2;Temp;Humidity;BMP_temperature;BMP_pressure;BME280_temperature;BME280_humidity;BME280_pressure;Samples;Min_cycle;Max_cycle;Signal;HPM_P1;HPM_P2
2023/03/26 00:01:04;;;;;;;4.28;3.53;;;5.40;90.10;;;;;;5037494;28;20079;-74
2023/03/26 00:03:33;;;;;;;3.65;3.35;;;5.30;90.00;;;;;;5049030;28;20483;-74
2023/03/26 00:06:06;;;;;;;3.92;3.63;;;5.30;90.10;;;;;;5055689;28;20437;-75
2023/03/26 00:08:36;;;;;;;3.60;3.40;;;5.30;90.10;;;;;;5040245;28;20036;-75
2023/03/26 00:11:03;;;;;;;4.03;3.72;;;5.20;89.90;;;;;;5038250;28;20029;-75
2023/03/26 00:13:29;;;;;;;4.30;3.45;;;5.20;90.20;;;;;;5052931;28;20024;-74
2023/03/26 00:15:55;;;;;;;4.05;3.70;;;5.10;90.20;;;;;;5052536;28;20051;-74
2023/03/26 00:18:23;;;;;;;3.50;3.28;;;5.00;90.30;;;;;;5055662;28;20060;-74
2023/03/26 00:20:50;;;;;;;3.72;3.42;;;4.90;90.40;;;;;;5053810;28;20079;-74
2023/03/26 00:23:16;;;;;;;7.40;4.00;;;4.80;90.70;;;;;;5055649;28;20101;-74
2023/03/26 00:25:42;;;;;;;3.70;3.40;;;4.80;90.90;;;;;;5053362;28;20495;-74
2023/03/26 00:28:08;;;;;;;4.22;3.85;;;4.80;91.20;;;;;;5055295;28;20044;-75
2023/03/26 00:30:40;;;;;;;3.72;3.53;;;4.80;91.10;;;;;;5053756;28;20442;-75
2023/03/26 00:33:06;;;;;;;5.38;3.70;;;4.80;91.10;;;;;;5053644;28;20476;-74
2023/03/26 00:35:35;;;;;;;4.95;4.00;;;4.80;91.10;;;;;;5053330;28;20505;-74
2023/03/26 00:38:01;;;;;;;3.78;3.47;;;4.90;91.10;;;;;;5056433;28;20075;-73
2023/03/26 00:40:26;;;;;;;4.00;3.70;;;4.80;91.10;;;;;;5054629;28;20063;-74
2023/03/26 00:42:52;;;;;;;4.68;3.42;;;4.80;91.20;;;;;;5051112;28;20505;-73
2023/03/26 00:45:20;;;;;;;3.95;3.60;;;4.80;91.10;;;;;;5049154;28;20060;-74
2023/03/26 00:47:45;;;;;;;4.10;3.72;;;4.80;91.20;;;;;;5063864;28;20518;-73
2023/03/26 00:50:14;;;;;;;4.00;3.55;;;4.60;91.20;;;;;;5052283;28;20045;-73
2023/03/26 00:52:45;;;;;;;3.78;3.47;;;4.50;91.40;;;;;;5057333;28;20119;-74
2023/03/26 00:55:11;;;;;;;;;;;4.50;91.60;;;;;;5057884;28;20032;-74
2023/03/26 00:57:37;;;;;;;3.78;3.47;;;4.50;91.70;;;;;;5060262;28;19921;-74
2023/03/26 01:00:13;;;;;;;4.43;3.78;;;4.50;91.50;;;;;;5055889;28;20131;-74
2023/03/26 01:02:39;;;;;;;6.10;3.53;;;4.50;91.50;;;;;;5061464;28;20097;-72
2023/03/26 01:05:44;;;;;;;4.45;3.55;;;4.50;91.50;;;;;;5050804;28;20435;-73
2023/03/26 01:08:16;;;;;;;4.20;3.90;;;4.50;91.70;;;;;;5055474;28;20132;-73
2023/03/26 01:10:49;;;;;;;4.13;3.72;;;4.50;91.70;;;;;;5054974;28;20548;-73
2023/03/26 01:13:16;;;;;;;3.75;3.45;;;4.40;91.70;;;;;;5056050;28;20067;-73
2023/03/26 01:15:48;;;;;;;3.92;3.60;;;4.30;92.00;;;;;;5058139;28;20132;-73
2023/03/26 01:18:14;;;;;;;3.67;3.47;;;4.30;92.20;;;;;;5057591;28;20545;-74
2023/03/26 01:20:45;;;;;;;5.25;4.00;;;4.30;92.30;;;;;;5060637;28;20122;-74
2023/03/26 01:23:14;;;;;;;3.58;3.38;;;4.40;92.20;;;;;;5057939;28;20036;-73
2023/03/26 01:25:46;;;;;;;4.28;3.63;;;4.40;92.10;;;;;;5056757;28;20029;-74
2023/03/26 01:28:16;;;;;;;4.10;3.88;;;4.40;92.20;;;;;;5057536;28;20067;-73
2023/03/26 01:31:00;;;;;;;3.75;3.55;;;4.50;92.20;;;;;;5057959;28;20112;-73
2023/03/26 01:33:51;;;;;;;4.88;3.78;;;4.50;92.10;;;;;;5055903;28;20029;-73
2023/03/26 01:36:28;;;;;;;4.63;4.20;;;4.60;92.00;;;;;;5055730;28;20029;-74
2023/03/26 01:39:11;;;;;;;5.03;3.70;;;4.60;91.90;;;;;;5054196;28;20047;-74
2023/03/26 01:42:01;;;;;;;5.60;5.13;;;4.60;91.80;;;;;;5054931;28;20021;-73
2023/03/26 01:44:31;;;;;;;3.70;3.43;;;4.70;91.90;;;;;;5051488;28;20414;-74
2023/03/26 01:46:59;;;;;;;4.27;3.40;;;4.70;91.90;;;;;;5063419;28;20037;-74
2023/03/26 01:49:27;;;;;;;4.72;3.67;;;4.70;92.10;;;;;;5056132;28;20321;-73
2023/03/26 01:51:56;;;;;;;3.60;3.40;;;4.70;91.90;;;;;;5057488;28;20041;-74
2023/03/26 01:54:25;;;;;;;3.78;3.58;;;4.80;92.00;;;;;;5051495;28;20028;-73
2023/03/26 01:57:21;;;;;;;3.78;3.50;;;4.80;91.90;;;;;;5054074;28;20364;-73
2023/03/26 02:00:06;;;;;;;4.97;4.68;;;4.80;91.90;;;;;;5058959;28;20032;-73
2023/03/26 02:03:04;;;;;;;4.40;4.00;;;4.80;91.90;;;;;;5050654;28;20079;-74
2023/03/26 02:05:42;;;;;;;5.05;3.60;;;4.90;91.90;;;;;;5060136;28;20032;-75
2023/03/26 02:08:08;;;;;;;4.03;3.72;;;4.90;91.90;;;;;;5051281;28;20039;-74
2023/03/26 02:10:44;;;;;;;4.53;4.13;;;4.90;92.00;;;;;;5064090;28;20025;-74
2023/03/26 02:13:13;;;;;;;4.07;3.88;;;4.90;92.00;;;;;;5040122;28;20139;-75
2023/03/26 02:15:40;;;;;;;3.95;3.60;;;4.90;91.90;;;;;;5060911;28;20028;-76
2023/03/26 02:18:09;;;;;;;5.47;3.60;;;4.90;91.80;;;;;;5052051;28;20029;-74
2023/03/26 02:20:35;;;;;;;4.10;3.80;;;4.90;91.90;;;;;;5061226;28;20053;-74
2023/03/26 02:23:01;;;;;;;5.22;3.80;;;4.90;91.80;;;;;;5052520;28;20060;-74
2023/03/26 02:25:27;;;;;;;4.30;4.00;;;4.80;91.80;;;;;;5058851;28;20487;-74
2023/03/26 02:27:53;;;;;;;4.50;3.67;;;4.80;91.80;;;;;;5037786;28;20045;-74
2023/03/26 02:30:25;;;;;;;4.03;3.83;;;4.70;91.90;;;;;;5050348;28;20035;-73
2023/03/26 02:32:52;;;;;;;4.18;3.88;;;4.80;92.10;;;;;;5054017;28;20130;-74
2023/03/26 02:35:20;;;;;;;4.25;3.90;;;4.70;92.10;;;;;;5052861;28;20027;-74
2023/03/26 02:37:49;;;;;;;5.13;4.10;;;4.70;92.20;;;;;;5053206;28;20039;-75
2023/03/26 02:40:17;;;;;;;4.93;3.90;;;4.70;92.30;;;;;;5062466;28;20093;-73
2023/03/26 02:42:42;;;;;;;4.18;3.63;;;4.80;92.30;;;;;;5050731;28;20033;-74
2023/03/26 02:45:08;;;;;;;3.90;3.70;;;4.70;92.30;;;;;;5053962;28;20032;-73
2023/03/26 02:47:34;;;;;;;4.30;3.95;;;4.70;92.30;;;;;;5055111;28;20025;-74
2023/03/26 02:50:00;;;;;;;4.07;3.80;;;4.60;92.40;;;;;;5059280;28;20040;-74
2023/03/26 02:52:26;;;;;;;4.32;3.95;;;4.70;92.50;;;;;;5054864;28;20028;-75
2023/03/26 02:54:52;;;;;;;4.15;3.70;;;4.70;92.50;;;;;;5058445;28;20033;-74
2023/03/26 02:57:18;;;;;;;3.85;3.65;;;4.60;92.50;;;;;;5054976;28;20039;-74
2023/03/26 02:59:45;;;;;;;4.60;4.20;;;4.70;92.40;;;;;;5050996;28;20518;-74
2023/03/26 03:02:12;;;;;;;4.05;3.75;;;4.60;92.40;;;;;;5088855;28;20498;-74
2023/03/26 03:04:38;;;;;;;4.22;3.92;;;4.60;92.40;;;;;;5057449;28;20038;-74
2023/03/26 03:07:04;;;;;;;4.03;3.45;;;4.60;92.40;;;;;;5055259;28;20063;-74
2023/03/26 03:09:30;;;;;;;3.97;3.75;;;4.60;92.50;;;;;;5057793;28;20029;-73
2023/03/26 03:11:56;;;;;;;4.25;3.67;;;4.70;92.50;;;;;;5048443;28;20029;-74
2023/03/26 03:14:21;;;;;;;4.20;3.63;;;4.70;92.50;;;;;;5057744;28;20107;-74
2023/03/26 03:16:47;;;;;;;3.80;3.50;;;4.70;92.60;;;;;;5057387;28;20024;-73
2023/03/26 03:19:13;;;;;;;3.60;3.40;;;4.60;92.60;;;;;;5054340;28;20402;-74
2023/03/26 03:21:40;;;;;;;4.07;3.78;;;4.80;92.70;;;;;;5058147;28;20025;-74
2023/03/26 03:24:06;;;;;;;4.18;3.65;;;4.80;92.30;;;;;;5058328;28;20047;-74
2023/03/26 03:26:33;;;;;;;4.10;3.80;;;4.70;92.30;;;;;;5054405;28;20411;-76
2023/03/26 03:28:59;;;;;;;4.25;3.85;;;4.70;92.30;;;;;;5055229;28;20036;-74
2023/03/26 03:31:25;;;;;;;4.07;3.65;;;4.80;92.40;;;;;;5056010;28;20032;-74
2023/03/26 03:33:51;;;;;;;4.22;3.83;;;4.80;92.40;;;;;;5056455;28;20490;-74
2023/03/26 03:36:23;;;;;;;4.00;3.80;;;4.70;92.20;;;;;;5058288;28;20032;-74
2023/03/26 03:38:49;;;;;;;3.97;3.60;;;4.70;92.30;;;;;;5053980;28;20506;-74
2023/03/26 03:41:17;;;;;;;4.35;4.00;;;4.70;92.40;;;;;;5059366;28;20070;-75
2023/03/26 03:43:43;;;;;;;3.72;3.53;;;4.70;92.20;;;;;;5055653;28;20036;-74
2023/03/26 03:46:10;;;;;;;4.18;3.72;;;4.70;92.00;;;;;;5055352;28;20044;-73
2023/03/26 03:48:39;;;;;;;4.00;3.80;;;4.80;92.20;;;;;;5051721;28;20040;-73
2023/03/26 03:51:05;;;;;;;5.05;4.05;;;4.80;92.30;;;;;;5056151;28;20055;-73
2023/03/26 03:53:31;;;;;;;3.67;3.42;;;4.70;92.60;;;;;;5047864;28;20402;-74
2023/03/26 03:55:57;;;;;;;5.32;3.70;;;4.80;92.50;;;;;;5059623;28;20036;-73
2023/03/26 03:58:27;;;;;;;3.83;3.63;;;4.80;92.40;;;;;;5046252;28;20507;-74
2023/03/26 04:01:03;;;;;;;4.50;4.07;;;4.90;92.30;;;;;;5053505;28;20021;-74
2023/03/26 04:03:29;;;;;;;4.43;4.03;;;4.90;92.40;;;;;;5053539;28;20449;-74
2023/03/26 04:05:55;;;;;;;3.92;3.63;;;4.90;92.20;;;;;;5050248;28;20112;-75
2023/03/26 04:08:23;;;;;;;3.88;3.58;;;5.00;92.10;;;;;;5056212;28;20116;-74
2023/03/26 04:10:50;;;;;;;3.88;3.58;;;4.90;92.10;;;;;;5054826;28;20566;-75
2023/03/26 04:13:16;;;;;;;4.18;3.80;;;4.90;92.00;;;;;;5053956;28;20034;-73
2023/03/26 04:15:42;;;;;;;3.90;3.53;;;4.90;92.10;;;;;;5056207;28;20491;-74
2023/03/26 04:18:09;;;;;;;3.47;3.28;;;4.90;92.10;;;;;;5049241;28;20526;-74
2023/03/26 04:20:37;;;;;;;4.50;3.60;;;5.00;92.10;;;;;;5056896;28;20029;-74
2023/03/26 04:23:04;;;;;;;3.88;3.47;;;5.10;92.00;;;;;;5057935;28;20043;-74
2023/03/26 04:25:32;;;;;;;4.10;3.70;;;5.10;91.90;;;;;;5057142;28;20067;-76
2023/03/26 04:28:05;;;;;;;4.00;3.38;;;5.20;91.70;;;;;;5053740;28;20028;-74
2023/03/26 04:30:33;;;;;;;3.65;3.45;;;5.20;91.50;;;;;;5056232;28;20040;-76
2023/03/26 04:33:05;;;;;;;3.65;3.38;;;5.30;91.50;;;;;;5055022;28;20504;-74
2023/03/26 04:35:35;;;;;;;3.90;3.60;;;5.30;91.60;;;;;;5061338;28;20029;-73
2023/03/26 04:38:05;;;;;;;3.47;3.27;;;5.30;91.40;;;;;;5052049;28;20052;-74
2023/03/26 04:40:33;;;;;;;3.55;3.40;;;5.30;91.20;;;;;;5056473;28;20029;-75
2023/03/26 04:43:01;;;;;;;3.75;3.53;;;5.30;91.50;;;;;;5056669;28;20037;-75
2023/03/26 04:45:29;;;;;;;3.83;3.50;;;5.30;91.50;;;;;;5059059;28;20043;-74
2023/03/26 04:47:56;;;;;;;3.65;3.35;;;5.30;91.50;;;;;;5061069;28;20086;-74
2023/03/26 04:50:23;;;;;;;4.20;3.80;;;5.30;91.40;;;;;;5055030;28;20430;-74
2023/03/26 04:52:50;;;;;;;4.00;3.70;;;5.20;91.30;;;;;;5061291;28;20035;-74
2023/03/26 04:55:38;;;;;;;3.83;3.60;;;5.20;91.40;;;;;;5060038;28;20033;-74
2023/03/26 04:58:04;;;;;;;6.10;3.60;;;5.30;91.40;;;;;;5051746;28;20039;-74
2023/03/26 05:00:30;;;;;;;3.50;3.30;;;5.30;91.50;;;;;;5057943;28;20448;-74
2023/03/26 05:03:00;;;;;;;3.72;3.42;;;5.30;91.60;;;;;;5062248;28;20064;-75
2023/03/26 05:05:27;;;;;;;3.95;3.65;;;5.30;91.80;;;;;;5057692;28;20032;-75
2023/03/26 05:07:54;;;;;;;3.85;3.60;;;5.30;91.90;;;;;;5056218;28;20041;-74
2023/03/26 05:10:20;;;;;;;4.10;3.70;;;5.40;92.30;;;;;;5061278;28;20037;-75
2023/03/26 05:12:46;;;;;;;4.00;3.70;;;5.30;92.90;;;;;;5043106;28;20029;-75
2023/03/26 05:15:14;;;;;;;4.38;4.00;;;5.30;93.20;;;;;;5059199;28;20510;-74
2023/03/26 05:17:40;;;;;;;3.92;3.72;;;5.30;93.50;;;;;;5056892;28;20059;-76
2023/03/26 05:20:20;;;;;;;6.55;4.47;;;5.40;94.10;;;;;;5060285;28;20028;-75
2023/03/26 05:22:47;;;;;;;4.00;3.70;;;5.40;93.80;;;;;;5057186;28;20435;-73
2023/03/26 05:25:12;;;;;;;4.32;4.13;;;5.40;94.50;;;;;;5056409;28;20060;-74
2023/03/26 05:27:38;;;;;;;4.70;4.30;;;5.40;95.60;;;;;;5057152;28;20483;-75
2023/03/26 05:30:07;;;;;;;4.55;4.20;;;6.90;99.90;;;;;;5062414;28;20029;-74
2023/03/26 05:32:33;;;;;;;5.00;4.65;;;6.80;99.90;;;;;;5053496;28;20021;-74
2023/03/26 05:34:59;;;;;;;6.75;6.45;;;6.70;99.90;;;;;;5062356;28;20096;-73
2023/03/26 05:37:29;;;;;;;6.30;4.32;;;6.50;99.90;;;;;;5055256;28;20029;-73
2023/03/26 05:39:56;;;;;;;7.43;4.30;;;6.40;99.90;;;;;;5054348;28;20028;-76
2023/03/26 05:42:22;;;;;;;5.47;4.93;;;6.30;99.90;;;;;;5053406;28;20501;-74
2023/03/26 05:44:47;;;;;;;17.48;5.00;;;6.30;99.90;;;;;;5057848;28;20040;-73
2023/03/26 05:47:13;;;;;;;13.93;4.43;;;6.40;99.90;;;;;;5053702;28;20048;-74
2023/03/26 05:49:39;;;;;;;4.75;4.35;;;6.30;99.90;;;;;;5061557;28;20033;-74
2023/03/26 05:52:05;;;;;;;11.18;5.00;;;6.20;99.90;;;;;;5049865;28;20031;-74
2023/03/26 05:54:30;;;;;;;4.90;4.60;;;6.10;99.90;;;;;;5059178;28;20028;-74
2023/03/26 05:56:56;;;;;;;4.90;4.50;;;5.90;99.90;;;;;;5056505;28;20074;-73
2023/03/26 05:59:22;;;;;;;4.78;4.47;;;6.00;99.90;;;;;;5059733;28;20446;-73
2023/03/26 06:01:49;;;;;;;4.85;4.35;;;5.90;99.90;;;;;;5057183;28;20090;-73
2023/03/26 06:04:16;;;;;;;9.40;8.45;;;6.10;99.90;;;;;;5061774;28;20482;-75
2023/03/26 06:06:43;;;;;;;5.10;4.70;;;6.20;99.90;;;;;;5052611;28;20047;-73
2023/03/26 06:09:12;;;;;;;5.25;4.32;;;6.10;99.90;;;;;;5058023;28;20037;-74
2023/03/26 06:11:38;;;;;;;4.20;3.90;;;6.10;99.90;;;;;;5054377;28;20028;-74
2023/03/26 06:14:04;;;;;;;5.95;4.28;;;6.20;99.90;;;;;;5049018;28;20029;-74
2023/03/26 06:16:30;;;;;;;5.38;4.75;;;6.10;99.90;;;;;;5048899;28;20086;-73
2023/03/26 06:18:56;;;;;;;4.80;4.13;;;6.00;99.90;;;;;;5062027;28;20036;-73
2023/03/26 06:21:22;;;;;;;7.28;6.80;;;6.20;99.90;;;;;;5049261;28;20093;-74
2023/03/26 06:23:48;;;;;;;6.60;6.10;;;6.30;99.90;;;;;;5059842;28;20112;-73
2023/03/26 06:26:14;;;;;;;7.50;6.07;;;6.40;99.90;;;;;;5051980;28;20466;-74
2023/03/26 06:28:40;;;;;;;5.47;5.18;;;6.40;99.90;;;;;;5051795;28;20030;-75
2023/03/26 06:31:06;;;;;;;6.10;5.50;;;6.40;99.90;;;;;;5050013;28;20037;-74
2023/03/26 06:33:32;;;;;;;6.15;5.75;;;6.70;99.90;;;;;;5056956;28;20156;-76
2023/03/26 06:35:58;;;;;;;7.38;6.05;;;6.70;99.90;;;;;;5044394;28;20029;-75
2023/03/26 06:38:30;;;;;;;6.72;6.03;;;6.70;99.90;;;;;;5055108;28;20070;-77
2023/03/26 06:41:05;;;;;;;7.45;5.55;;;6.90;99.90;;;;;;5036181;28;20088;-74
2023/03/26 06:43:32;;;;;;;5.40;5.00;;;6.90;99.90;;;;;;5049517;28;20372;-73
2023/03/26 06:46:00;;;;;;;6.18;5.63;;;6.80;99.90;;;;;;5052152;28;20113;-77
2023/03/26 06:48:26;;;;;;;7.22;6.45;;;6.80;99.90;;;;;;5053080;28;20031;-75
2023/03/26 06:50:52;;;;;;;6.07;5.47;;;6.70;99.90;;;;;;5055390;28;20029;-75
2023/03/26 06:53:21;;;;;;;6.90;5.97;;;6.70;99.90;;;;;;5039297;28;20032;-77
2023/03/26 06:55:46;;;;;;;6.45;5.93;;;6.80;99.90;;;;;;5053550;28;20025;-74
2023/03/26 06:58:13;;;;;;;6.35;5.82;;;7.00;99.90;;;;;;5055905;28;20033;-74
2023/03/26 07:00:39;;;;;;;7.88;7.28;;;6.90;99.90;;;;;;5049509;28;20025;-74
2023/03/26 07:03:05;;;;;;;5.95;5.45;;;6.80;99.90;;;;;;5058487;28;20083;-76
2023/03/26 07:05:30;;;;;;;8.40;5.63;;;7.10;99.90;;;;;;5054894;28;20065;-73
2023/03/26 07:07:56;;;;;;;8.27;5.72;;;7.20;99.90;;;;;;5055161;28;20052;-74
2023/03/26 07:10:22;;;;;;;6.78;6.20;;;7.30;99.90;;;;;;5052395;28;20569;-73
2023/03/26 07:12:48;;;;;;;5.82;5.43;;;7.30;99.90;;;;;;5030921;28;20037;-74
2023/03/26 07:15:13;;;;;;;5.80;5.25;;;7.10;99.90;;;;;;5044949;28;20071;-75
2023/03/26 07:17:39;;;;;;;6.82;5.40;;;7.10;99.90;;;;;;5045908;28;20025;-77
2023/03/26 07:20:07;;;;;;;12.02;9.43;;;7.00;99.90;;;;;;5046981;28;20107;-75
2023/03/26 07:22:33;;;;;;;6.38;5.72;;;7.00;99.90;;;;;;5053133;28;20032;-76
2023/03/26 07:25:00;;;;;;;6.50;5.88;;;7.20;99.90;;;;;;5043514;28;20078;-75
2023/03/26 07:27:41;;;;;;;6.32;5.82;;;7.40;99.90;;;;;;5049466;28;20040;-74
2023/03/26 07:30:30;;;;;;;12.73;6.93;;;7.50;99.90;;;;;;5044035;28;20072;-76
2023/03/26 07:33:03;;;;;;;8.43;7.78;;;7.40;99.90;;;;;;5045941;28;20099;-76
2023/03/26 07:35:42;;;;;;;21.40;9.10;;;7.40;99.90;;;;;;5045981;28;20054;-76
2023/03/26 07:38:40;;;;;;;13.65;8.20;;;7.00;99.90;;;;;;5053793;28;20517;-73
2023/03/26 07:41:29;;;;;;;8.05;7.43;;;6.80;99.90;;;;;;5046831;28;20112;-74
2023/03/26 07:43:55;;;;;;;11.52;9.43;;;6.80;99.90;;;;;;5051536;28;20025;-73
2023/03/26 07:46:28;;;;;;;7.57;5.97;;;6.60;99.90;;;;;;5047475;28;20032;-75
2023/03/26 07:48:57;;;;;;;6.25;5.72;;;6.80;99.90;;;;;;5051323;28;20028;-73
2023/03/26 07:51:23;;;;;;;6.70;6.10;;;6.60;99.90;;;;;;5055953;28;20044;-72
2023/03/26 07:53:49;;;;;;;7.40;5.60;;;6.60;99.90;;;;;;5054124;28;20511;-73
2023/03/26 07:56:44;;;;;;;10.27;5.63;;;6.70;99.90;;;;;;5057616;28;20136;-74
2023/03/26 07:59:14;;;;;;;6.05;5.50;;;6.70;99.90;;;;;;5054846;28;20102;-72
2023/03/26 08:02:03;;;;;;;5.10;4.70;;;6.70;99.90;;;;;;5050712;28;20509;-74
2023/03/26 08:04:46;;;;;;;6.00;5.45;;;6.80;99.90;;;;;;5052700;28;20729;-73
2023/03/26 08:07:15;;;;;;;6.00;5.50;;;6.60;99.90;;;;;;5054353;28;20439;-74
2023/03/26 08:10:02;;;;;;;5.85;5.35;;;6.60;99.90;;;;;;5056648;28;20040;-74
2023/03/26 08:12:49;;;;;;;6.10;5.60;;;6.50;99.90;;;;;;5050256;28;20025;-72
2023/03/26 08:15:28;;;;;;;6.05;5.60;;;6.40;99.90;;;;;;5049285;28;20378;-72
2023/03/26 08:18:15;;;;;;;5.90;5.50;;;6.30;99.90;;;;;;5056380;28;20033;-72
2023/03/26 08:20:53;;;;;;;5.53;5.03;;;6.20;99.90;;;;;;5057783;28;20779;-74
2023/03/26 08:23:45;;;;;;;6.60;6.00;;;6.30;99.90;;;;;;5044860;28;20026;-73
2023/03/26 08:26:18;;;;;;;5.38;4.97;;;6.30;99.90;;;;;;5046227;28;20032;-75
2023/03/26 08:28:58;;;;;;;5.88;5.38;;;6.50;99.90;;;;;;5046315;28;20033;-74
2023/03/26 08:31:32;;;;;;;4.73;4.50;;;6.60;99.90;;;;;;5050103;28;20106;-72
2023/03/26 08:33:58;;;;;;;36.83;34.22;;;6.50;99.90;;;;;;5045768;28;20029;-77
2023/03/26 08:36:24;;;;;;;5.78;5.28;;;6.40;99.90;;;;;;5052985;28;20506;-74
2023/03/26 08:38:51;;;;;;;7.00;6.63;;;6.50;99.90;;;;;;5049479;28;20041;-74
2023/03/26 08:41:45;;;;;;;6.45;5.10;;;6.60;99.90;;;;;;5051603;28;20029;-74
2023/03/26 08:44:48;;;;;;;6.30;5.80;;;6.60;99.90;;;;;;5050182;28;20021;-74
2023/03/26 08:47:22;;;;;;;5.10;4.80;;;6.60;99.90;;;;;;5051763;28;20037;-73
2023/03/26 08:50:22;;;;;;;5.00;4.60;;;6.70;99.90;;;;;;5045411;28;20040;-74
2023/03/26 08:52:56;;;;;;;8.65;8.18;;;6.70;99.90;;;;;;5055930;28;20029;-74
2023/03/26 08:55:43;;;;;;;5.03;4.63;;;6.70;99.90;;;;;;5059989;28;20557;-73
2023/03/26 08:58:30;;;;;;;6.80;5.90;;;6.80;99.90;;;;;;5057828;28;20071;-74
2023/03/26 09:01:23;;;;;;;5.38;5.07;;;6.90;99.90;;;;;;5051914;28;20157;-74
2023/03/26 09:04:12;;;;;;;5.75;5.32;;;7.20;99.90;;;;;;5047902;28;20130;-74
2023/03/26 09:07:16;;;;;;;4.95;4.55;;;7.60;99.90;;;;;;5053249;28;20061;-80
2023/03/26 09:09:53;;;;;;;5.07;4.78;;;7.80;99.90;;;;;;5048319;28;20079;-79
2023/03/26 09:12:25;;;;;;;5.70;5.18;;;7.80;99.90;;;;;;5058489;28;20045;-78
2023/03/26 09:14:53;;;;;;;9.57;9.07;;;7.80;99.90;;;;;;5051366;28;20037;-76
2023/03/26 09:17:43;;;;;;;8.32;7.88;;;7.60;99.90;;;;;;5059260;28;20048;-76
2023/03/26 09:20:28;;;;;;;4.85;4.55;;;7.80;99.90;;;;;;5052879;28;20028;-79
2023/03/26 09:23:14;;;;;;;4.90;4.60;;;7.70;99.90;;;;;;5057560;28;20529;-75
2023/03/26 09:25:50;;;;;;;5.13;4.82;;;7.60;99.90;;;;;;5055283;28;20035;-74
2023/03/26 09:28:41;;;;;;;6.32;5.82;;;7.40;99.90;;;;;;5056511;28;20031;-75
2023/03/26 09:31:38;;;;;;;4.60;4.30;;;7.30;99.90;;;;;;5053641;28;20050;-75
2023/03/26 09:34:25;;;;;;;20.60;19.45;;;7.20;99.90;;;;;;5045748;28;20063;-76
2023/03/26 09:36:56;;;;;;;11.63;11.13;;;7.20;99.90;;;;;;5056270;28;20390;-75
2023/03/26 09:39:29;;;;;;;7.35;6.95;;;7.10;99.90;;;;;;5056484;28;20037;-78
2023/03/26 09:42:14;;;;;;;5.28;4.97;;;7.30;99.90;;;;;;5048107;28;20028;-74
2023/03/26 09:44:51;;;;;;;5.53;5.22;;;7.40;99.90;;;;;;5053747;28;20037;-76
2023/03/26 09:47:38;;;;;;;151.27;138.73;;;7.50;99.90;;;;;;5046294;28;20030;-77
2023/03/26 09:50:16;;;;;;;58.60;55.60;;;7.50;99.90;;;;;;5061278;28;20040;-73
2023/03/26 09:52:56;;;;;;;4.63;4.43;;;7.60;99.90;;;;;;5048551;28;20025;-76
2023/03/26 09:55:30;;;;;;;68.30;42.47;;;7.70;99.90;;;;;;5052761;28;20032;-77
2023/03/26 09:58:03;;;;;;;38.03;36.05;;;7.40;99.90;;;;;;5055428;28;20051;-77
2023/03/26 10:00:59;;;;;;;65.30;61.92;;;7.20;99.90;;;;;;5040523;28;20029;-77
2023/03/26 10:03:36;;;;;;;5.28;4.90;;;7.20;99.90;;;;;;5049495;28;20113;-73
2023/03/26 10:06:11;;;;;;;24.00;22.65;;;7.20;99.90;;;;;;5050021;28;20029;-74
2023/03/26 10:09:13;;;;;;;14.25;13.48;;;7.30;99.90;;;;;;5056425;28;20028;-77
2023/03/26 10:11:57;;;;;;;5.80;5.50;;;7.50;99.90;;;;;;5059000;28;20039;-79
2023/03/26 10:14:40;;;;;;;25.25;23.75;;;8.00;99.90;;;;;;5057253;28;20112;-77
2023/03/26 10:17:45;;;;;;;52.30;45.00;;;7.90;99.90;;;;;;5053364;28;20498;-85
2023/03/26 10:20:44;;;;;;;5.25;5.00;;;7.70;99.90;;;;;;5059275;28;20056;-77
2023/03/26 10:23:22;;;;;;;5.05;4.80;;;7.50;99.90;;;;;;5050354;28;20029;-77
2023/03/26 10:26:12;;;;;;;53.42;42.53;;;7.80;99.90;;;;;;5055618;28;20040;-75
2023/03/26 10:29:23;;;;;;;6.90;6.60;;;7.90;99.90;;;;;;5050870;28;20767;-77
2023/03/26 10:32:12;;;;;;;4.35;4.15;;;8.20;99.90;;;;;;5042285;28;20507;-76
2023/03/26 10:34:47;;;;;;;256.20;127.80;;;8.10;99.90;;;;;;5051313;28;20463;-76
2023/03/26 10:37:19;;;;;;;11.25;10.55;;;7.90;99.90;;;;;;5051052;28;20028;-79
2023/03/26 10:40:00;;;;;;;13.48;12.82;;;7.90;99.90;;;;;;5049911;28;20527;-74
2023/03/26 10:42:40;;;;;;;5.15;4.75;;;8.00;99.90;;;;;;5047846;28;20047;-78
2023/03/26 10:45:28;;;;;;;4.50;4.30;;;8.30;99.90;;;;;;5057044;28;20470;-74
2023/03/26 10:48:17;;;;;;;4.70;4.45;;;8.60;99.90;;;;;;5056577;28;20755;-78
2023/03/26 10:51:20;;;;;;;219.13;144.40;;;8.60;99.90;;;;;;5043456;28;20037;-76
2023/03/26 10:53:50;;;;;;;87.97;59.42;;;8.40;99.90;;;;;;5046360;28;20021;-76
2023/03/26 10:56:31;;;;;;;5.70;5.50;;;8.40;99.90;;;;;;5046171;28;20028;-77
2023/03/26 10:59:01;;;;;;;5.05;4.75;;;8.60;99.90;;;;;;5046745;28;20025;-75
2023/03/26 11:01:30;;;;;;;5.75;5.55;;;9.10;99.90;;;;;;5045027;28;20037;-81
2023/03/26 11:04:19;;;;;;;7.80;7.47;;;9.70;99.90;;;;;;5052531;28;20104;-79
2023/03/26 11:06:52;;;;;;;5.68;5.45;;;9.70;99.90;;;;;;5031811;28;20112;-78
2023/03/26 11:09:38;;;;;;;6.47;6.28;;;9.40;99.90;;;;;;5045522;28;20036;-76
2023/03/26 11:12:12;;;;;;;16.38;15.10;;;9.70;99.90;;;;;;5047183;28;20518;-76
2023/03/26 11:14:59;;;;;;;8.93;8.48;;;9.60;99.90;;;;;;5051747;28;20063;-81
2023/03/26 11:17:45;;;;;;;6.00;5.70;;;10.10;99.90;;;;;;5048498;28;20020;-81
2023/03/26 11:20:38;;;;;;;19.73;18.83;;;10.30;99.90;;;;;;5045295;28;20127;-82
2023/03/26 11:23:20;;;;;;;5.68;5.30;;;10.20;99.90;;;;;;5053616;28;20072;-77
2023/03/26 11:25:58;;;;;;;21.80;16.92;;;10.70;99.90;;;;;;5050565;28;20033;-82
2023/03/26 11:28:33;;;;;;;5.57;5.18;;;10.60;99.90;;;;;;5054233;28;20039;-79
2023/03/26 11:31:14;;;;;;;6.50;6.18;;;10.50;99.90;;;;;;5035264;28;20032;-77
2023/03/26 11:33:50;;;;;;;355.77;199.00;;;10.70;99.90;;;;;;5054594;28;20032;-77
2023/03/26 11:36:22;;;;;;;20.20;18.70;;;10.30;99.90;;;;;;5053156;28;20078;-78
2023/03/26 11:38:55;;;;;;;11.98;11.38;;;11.00;99.90;;;;;;5050774;28;20048;-78
2023/03/26 11:41:24;;;;;;;64.00;54.80;;;10.80;99.90;;;;;;5049330;28;20037;-78
2023/03/26 11:44:06;;;;;;;15.32;14.52;;;10.70;99.90;;;;;;5045431;28;20021;-76
2023/03/26 11:46:35;;;;;;;19.25;17.40;;;11.00;99.90;;;;;;5044532;28;20041;-80
2023/03/26 11:49:08;;;;;;;4.60;4.40;;;11.10;99.50;;;;;;5052585;28;20045;-77
2023/03/26 11:51:38;;;;;;;5.20;4.80;;;11.30;99.90;;;;;;5049779;28;20040;-77
2023/03/26 11:54:06;;;;;;;14.90;13.75;;;11.40;99.90;;;;;;5040893;28;20033;-80
2023/03/26 11:56:53;;;;;;;88.88;66.60;;;11.50;96.90;;;;;;5040035;28;20055;-80
2023/03/26 11:59:40;;;;;;;181.75;82.75;;;10.60;99.10;;;;;;5051141;28;20407;-75
2023/03/26 12:02:08;;;;;;;14.90;14.07;;;10.60;97.30;;;;;;5052077;28;20104;-76
2023/03/26 12:04:34;;;;;;;8.85;8.45;;;10.00;98.30;;;;;;5052086;28;20025;-78
2023/03/26 12:07:15;;;;;;;32.92;29.27;;;9.90;99.90;;;;;;5049552;28;20044;-79
2023/03/26 12:09:49;;;;;;;248.70;111.45;;;9.80;98.90;;;;;;5054485;28;20033;-74
2023/03/26 12:12:16;;;;;;;328.80;65.93;;;9.50;97.70;;;;;;5047854;28;20017;-74
2023/03/26 12:14:43;;;;;;;60.08;53.58;;;9.30;97.60;;;;;;5049657;28;20025;-77
2023/03/26 12:17:13;;;;;;;14.18;12.50;;;9.60;99.20;;;;;;5054764;28;20090;-75
2023/03/26 12:19:42;;;;;;;31.73;29.40;;;9.60;99.90;;;;;;5043255;28;20563;-78
2023/03/26 12:22:34;;;;;;;5.18;4.95;;;9.70;97.00;;;;;;5043504;28;20063;-76
2023/03/26 12:25:28;;;;;;;215.45;68.72;;;9.60;99.20;;;;;;5045288;28;20265;-81
2023/03/26 12:28:12;;;;;;;10.18;9.65;;;9.60;98.20;;;;;;5052030;28;20054;-79
2023/03/26 12:31:16;;;;;;;12.45;11.90;;;10.20;98.30;;;;;;5060037;28;20036;-77
2023/03/26 12:33:43;;;;;;;10.95;10.35;;;10.60;99.90;;;;;;5044373;28;20067;-75
2023/03/26 12:36:29;;;;;;;4.47;4.22;;;10.80;97.40;;;;;;5052458;28;20450;-76
2023/03/26 12:38:54;;;;;;;7.10;6.55;;;10.90;98.60;;;;;;5047594;28;20708;-75
2023/03/26 12:41:34;;;;;;;11.45;10.95;;;11.20;98.60;;;;;;5051237;28;20094;-75
2023/03/26 12:44:25;;;;;;;5.80;5.53;;;11.70;98.70;;;;;;5061271;28;20024;-76
2023/03/26 12:46:53;;;;;;;8.82;8.35;;;12.00;98.10;;;;;;5056454;28;20037;-77
2023/03/26 12:49:21;;;;;;;4.47;4.28;;;11.20;96.90;;;;;;5056712;28;20107;-75
2023/03/26 12:51:55;;;;;;;6.85;6.55;;;11.10;92.70;;;;;;5036237;28;20498;-83
2023/03/26 12:54:44;;;;;;;5.93;5.68;;;11.00;93.30;;;;;;5059476;28;20086;-75
2023/03/26 12:57:25;;;;;;;31.92;28.42;;;11.30;95.80;;;;;;5061038;28;20020;-75
2023/03/26 13:00:27;;;;;;;4.90;4.60;;;11.70;92.10;;;;;;5048169;28;20395;-75
2023/03/26 13:03:13;;;;;;;22.77;21.65;;;12.60;94.90;;;;;;5053163;28;20030;-76
2023/03/26 13:06:05;;;;;;;9.38;8.75;;;12.60;95.30;;;;;;5055676;28;20035;-78
2023/03/26 13:08:51;;;;;;;6.05;5.65;;;12.30;91.80;;;;;;5058238;28;20024;-76
2023/03/26 13:11:28;;;;;;;7.85;7.43;;;12.20;90.00;;;;;;5057979;28;20033;-76
2023/03/26 13:14:29;;;;;;;3.95;3.75;;;11.70;92.30;;;;;;5056196;28;20792;-79
2023/03/26 13:17:10;;;;;;;3.80;3.60;;;11.20;92.60;;;;;;5056864;28;20034;-76
2023/03/26 13:19:48;;;;;;;;;;;11.30;95.60;;;;;;5058023;28;20479;-77
2023/03/26 13:22:42;;;;;;;6.72;6.32;;;12.10;93.70;;;;;;5058962;28;19919;-78
2023/03/26 13:25:25;;;;;;;8.60;8.18;;;11.20;94.10;;;;;;5059474;28;20033;-75
2023/03/26 13:28:10;;;;;;;6.88;6.50;;;12.50;91.10;;;;;;5056175;28;20037;-75